Time;durP1;ratioP1;P1;durP2;ratioP2;P2;SDS_P1;SDS_P2;PMS_P1;PMS_P2;Temp;Humidity;BMP_temperature;BMP_pressure;BME280_temperature;BME280_humidity;BME280_pressure;Samples;Min_cycle;Max_cycle;Signal;HPM_P1;HPM_P2
2021/10/18 01:08:29;;;;;;;3.13;2.83;;;9.20;99.90;;;;;;6124425;23;20405;-81
2021/10/18 01:13:02;;;;;;;2.60;2.40;;;9.00;99.90;;;;;;6082178;23;20394;-81
2021/10/18 01:16:58;;;;;;;2.97;2.75;;;9.20;99.90;;;;;;6114996;23;20387;-80
2021/10/18 01:25:22;;;;;;;3.80;2.60;;;9.10;99.90;;;;;;6008043;23;20406;-80
2021/10/18 02:03:37;;;;;;;3.67;2.57;;;9.10;99.90;;;;;;6143093;23;20385;-81
2021/10/18 02:07:52;;;;;;;2.53;2.33;;;9.10;99.90;;;;;;6060407;23;20397;-80
2021/10/18 15:00:28;;;;;;;1.20;0.93;;;15.80;99.90;;;;;;6177640;23;20358;-90
2021/10/18 15:03:13;;;;;;;1.00;1.00;;;15.80;99.90;;;;;;6131676;23;20382;-89
2021/10/18 15:05:58;;;;;;;1.60;1.10;;;15.80;99.90;;;;;;6107891;23;20400;-90
2021/10/18 15:08:42;;;;;;;0.85;0.85;;;15.80;99.90;;;;;;6086100;23;20387;-90
2021/10/18 15:11:26;;;;;;;1.48;1.35;;;15.70;99.90;;;;;;6086412;23;20356;-89
2021/10/18 15:14:10;;;;;;;1.20;1.20;;;15.70;99.90;;;;;;6112197;23;20385;-90
2021/10/18 15:16:55;;;;;;;1.42;1.15;;;15.70;99.90;;;;;;6131624;23;20366;-90
2021/10/18 15:19:40;;;;;;;0.90;0.90;;;15.60;99.90;;;;;;6128462;23;20368;-90
2021/10/18 15:22:24;;;;;;;1.55;1.08;;;15.50;99.90;;;;;;6107306;23;20423;-91
2021/10/18 15:25:10;;;;;;;1.00;1.00;;;15.50;99.90;;;;;;6112856;23;20410;-90
2021/10/18 15:27:54;;;;;;;0.95;0.95;;;15.40;99.90;;;;;;6113506;23;20410;-89
2021/10/18 15:30:39;;;;;;;1.50;1.40;;;15.30;99.90;;;;;;6083362;23;20364;-90
2021/10/18 15:33:23;;;;;;;2.13;1.33;;;15.30;99.90;;;;;;6131073;23;20435;-89
2021/10/18 15:36:08;;;;;;;1.80;1.63;;;15.20;99.90;;;;;;6128856;23;20386;-90
2021/10/18 15:38:55;;;;;;;1.13;1.10;;;15.30;99.90;;;;;;6113679;23;20406;-89
2021/10/18 15:41:40;;;;;;;1.10;1.10;;;15.00;99.90;;;;;;6147598;23;20359;-89
2021/10/18 15:44:24;;;;;;;1.45;1.35;;;15.00;99.90;;;;;;6106343;23;20425;-90
2021/10/18 15:47:09;;;;;;;1.02;1.02;;;15.00;99.90;;;;;;6113826;23;20364;-89
2021/10/18 15:49:53;;;;;;;1.30;1.20;;;14.80;99.90;;;;;;6111381;23;20493;-89
2021/10/18 15:52:38;;;;;;;1.30;1.10;;;14.80;99.90;;;;;;6125269;23;20367;-90
2021/10/18 15:55:23;;;;;;;1.15;1.10;;;14.70;99.90;;;;;;6126639;23;20404;-89
2021/10/18 15:58:07;;;;;;;1.08;1.08;;;14.60;99.90;;;;;;6090904;23;20492;-90
2021/10/18 16:33:10;;;;;;;0.73;0.73;;;13.50;99.90;;;;;;6086852;23;20399;-85
2021/10/18 16:35:55;;;;;;;0.80;0.80;;;13.30;99.90;;;;;;6100155;23;20407;-86
2021/10/18 16:38:39;;;;;;;0.98;0.98;;;13.20;99.90;;;;;;6120293;23;20404;-86
2021/10/18 16:41:23;;;;;;;0.90;0.90;;;13.10;99.90;;;;;;6079899;23;20440;-88
2021/10/18 16:44:10;;;;;;;2.63;2.03;;;12.80;99.90;;;;;;6078968;23;20913;-87
2021/10/18 16:46:55;;;;;;;2.10;1.95;;;12.70;99.90;;;;;;6100646;23;20356;-85
2021/10/18 16:49:39;;;;;;;1.80;1.70;;;12.50;99.90;;;;;;6074936;23;20448;-85
2021/10/18 16:52:23;;;;;;;2.03;1.40;;;12.50;99.90;;;;;;6080648;23;20351;-88
2021/10/18 16:55:09;;;;;;;1.00;1.00;;;12.40;99.90;;;;;;6082881;23;20487;-84
2021/10/18 16:57:53;;;;;;;1.50;1.40;;;12.30;99.90;;;;;;6081911;23;20356;-87
2021/10/18 17:00:37;;;;;;;1.50;1.40;;;12.30;99.90;;;;;;6081359;23;20363;-85
2021/10/18 17:03:25;;;;;;;1.45;1.35;;;12.20;99.90;;;;;;6099028;23;20389;-90
2021/10/18 17:06:11;;;;;;;1.40;1.30;;;12.10;99.90;;;;;;6103709;23;20385;-85
2021/10/18 17:08:55;;;;;;;1.77;1.53;;;12.00;99.90;;;;;;6073335;23;20461;-83
2021/10/18 17:11:40;;;;;;;1.30;1.20;;;12.00;99.90;;;;;;6071951;23;20423;-82
2021/10/18 17:14:25;;;;;;;1.23;1.20;;;12.00;99.90;;;;;;6088663;23;20755;-82
2021/10/18 17:17:09;;;;;;;1.48;1.38;;;11.90;99.90;;;;;;6085425;23;20388;-88
2021/10/18 17:19:54;;;;;;;1.33;1.23;;;11.80;99.90;;;;;;6065456;23;20371;-84
2021/10/18 17:22:38;;;;;;;1.40;1.30;;;11.70;99.90;;;;;;6105120;23;20368;-82
2021/10/18 17:25:25;;;;;;;1.45;1.35;;;11.70;99.90;;;;;;6125923;23;20371;-83
2021/10/18 17:28:09;;;;;;;1.25;1.20;;;11.50;99.90;;;;;;6057834;23;20385;-84
2021/10/18 17:30:54;;;;;;;1.30;1.20;;;11.50;99.90;;;;;;6091182;23;20546;-82
2021/10/18 17:33:38;;;;;;;1.13;1.13;;;11.50;99.90;;;;;;6119143;23;22062;-88
2021/10/18 17:36:23;;;;;;;1.30;1.30;;;11.60;99.90;;;;;;6103274;23;20389;-85
2021/10/18 17:39:10;;;;;;;1.45;1.35;;;11.60;99.90;;;;;;6139010;23;20438;-83
2021/10/18 17:41:54;;;;;;;2.42;1.67;;;11.70;99.90;;;;;;6118551;23;20366;-87
2021/10/18 17:44:38;;;;;;;1.52;1.42;;;11.60;99.90;;;;;;6146455;23;20491;-88
2021/10/18 17:47:23;;;;;;;1.35;1.25;;;11.50;99.90;;;;;;6140776;23;20389;-85
2021/10/18 17:50:08;;;;;;;1.15;1.15;;;11.50;99.90;;;;;;6099031;23;20903;-85
2021/10/18 17:52:54;;;;;;;1.70;1.20;;;11.50;99.90;;;;;;6142045;23;20375;-83
2021/10/18 17:55:39;;;;;;;1.00;1.00;;;11.50;99.90;;;;;;6120171;23;20382;-84
2021/10/18 17:58:23;;;;;;;1.17;1.13;;;11.40;99.90;;;;;;6101902;23;20962;-85
2021/10/18 18:01:08;;;;;;;1.40;1.30;;;11.40;99.90;;;;;;6141546;23;20378;-87
2021/10/18 18:03:52;;;;;;;1.50;1.40;;;11.50;99.90;;;;;;6120234;23;20410;-84
2021/10/18 18:06:48;;;;;;;1.50;1.30;;;11.40;99.90;;;;;;6126298;23;20406;-83
2021/10/18 18:09:32;;;;;;;1.70;1.20;;;11.00;99.90;;;;;;6144808;23;20382;-87
2021/10/18 18:12:17;;;;;;;1.60;1.50;;;11.10;99.90;;;;;;6103203;23;20382;-89
2021/10/18 18:15:02;;;;;;;3.55;3.03;;;10.90;99.90;;;;;;6127232;23;20393;-87
2021/10/18 18:17:47;;;;;;;1.95;1.75;;;11.00;99.90;;;;;;6126838;23;20487;-85
2021/10/18 18:20:37;;;;;;;1.42;1.33;;;10.90;99.90;;;;;;6147486;23;20386;-83
2021/10/18 18:23:21;;;;;;;1.70;1.60;;;10.80;99.90;;;;;;6130574;23;20369;-85
2021/10/18 18:26:06;;;;;;;1.42;1.33;;;10.80;99.90;;;;;;6130401;23;20385;-89
2021/10/18 18:29:03;;;;;;;1.60;1.50;;;10.80;99.90;;;;;;6130946;23;20393;-86
2021/10/18 18:32:08;;;;;;;1.55;1.45;;;10.90;99.90;;;;;;6131108;23;20382;-87
2021/10/18 18:34:53;;;;;;;1.50;1.40;;;10.80;99.90;;;;;;6148117;23;20458;-83
2021/10/18 18:37:39;;;;;;;1.40;1.30;;;10.80;99.90;;;;;;6108563;23;20350;-86
2021/10/18 18:40:26;;;;;;;1.45;1.35;;;10.80;99.90;;;;;;6129029;23;20401;-85
2021/10/18 18:43:11;;;;;;;1.50;1.40;;;10.80;99.90;;;;;;6113394;23;20452;-86
2021/10/18 18:45:59;;;;;;;1.50;1.40;;;10.80;99.90;;;;;;6107103;23;20374;-87
2021/10/18 18:48:43;;;;;;;1.60;1.50;;;10.90;99.90;;;;;;6089535;23;20444;-85
2021/10/18 18:51:29;;;;;;;2.75;1.67;;;10.70;99.90;;;;;;6128670;23;20374;-83
2021/10/18 18:54:15;;;;;;;1.73;1.63;;;10.70;99.90;;;;;;6127919;23;20481;-84
2021/10/18 18:57:00;;;;;;;1.80;1.70;;;10.60;99.90;;;;;;6141403;23;20390;-84
2021/10/18 18:59:46;;;;;;;1.80;1.70;;;10.30;99.90;;;;;;6092178;23;20394;-89
2021/10/18 19:02:31;;;;;;;1.52;1.42;;;10.40;99.90;;;;;;6141574;23;20502;-81
2021/10/18 19:05:18;;;;;;;2.00;1.90;;;10.40;99.90;;;;;;6150972;23;20386;-83
2021/10/18 19:08:02;;;;;;;2.58;2.38;;;10.40;99.90;;;;;;6087943;23;20377;-81
2021/10/18 19:10:47;;;;;;;3.03;2.42;;;10.40;99.90;;;;;;6107993;23;20757;-83
2021/10/18 19:13:32;;;;;;;2.75;2.08;;;10.40;99.90;;;;;;6119075;23;20402;-83
2021/10/18 19:16:16;;;;;;;1.83;1.73;;;10.30;99.90;;;;;;6132748;23;20386;-84
2021/10/18 19:19:01;;;;;;;1.52;1.42;;;10.30;99.90;;;;;;6107591;23;20421;-82
2021/10/18 19:21:45;;;;;;;1.47;1.40;;;10.30;99.90;;;;;;6113365;23;20410;-82
2021/10/18 19:24:30;;;;;;;1.65;1.55;;;10.20;99.90;;;;;;6092392;23;20394;-82
2021/10/18 19:27:15;;;;;;;1.58;1.48;;;10.20;99.90;;;;;;6092068;23;20378;-81
2021/10/18 19:30:10;;;;;;;1.67;1.58;;;10.10;99.90;;;;;;6136215;23;20458;-84
2021/10/18 19:32:55;;;;;;;2.00;1.70;;;10.20;99.90;;;;;;6127132;23;20398;-82
2021/10/18 19:35:39;;;;;;;1.50;1.40;;;10.10;99.90;;;;;;6115068;23;20438;-81
2021/10/18 19:38:23;;;;;;;1.48;1.38;;;10.10;99.90;;;;;;6135455;23;20720;-88
2021/10/18 19:41:08;;;;;;;1.50;1.40;;;10.00;99.90;;;;;;6090590;23;21153;-82
2021/10/18 19:43:54;;;;;;;1.75;1.60;;;10.00;99.90;;;;;;6111935;23;21107;-81
2021/10/18 19:46:38;;;;;;;1.60;1.50;;;10.00;99.90;;;;;;6134332;23;20437;-82
2021/10/18 19:49:22;;;;;;;1.55;1.45;;;9.90;99.90;;;;;;6092893;23;20379;-81
2021/10/18 19:52:12;;;;;;;1.50;1.40;;;9.80;99.90;;;;;;6113847;23;20364;-81
2021/10/18 19:54:57;;;;;;;1.92;1.70;;;9.90;99.90;;;;;;6132300;23;20427;-82
2021/10/18 19:57:42;;;;;;;2.20;1.83;;;9.90;99.90;;;;;;6112000;23;20393;-84
2021/10/18 20:00:26;;;;;;;2.33;1.67;;;9.80;99.90;;;;;;6111312;23;20386;-81
2021/10/18 20:03:11;;;;;;;1.60;1.50;;;9.70;99.90;;;;;;6096182;23;20370;-83
2021/10/18 20:05:55;;;;;;;1.50;1.40;;;9.60;99.90;;;;;;6135980;23;20410;-82
2021/10/18 20:11:48;;;;;;;1.50;1.40;;;9.40;99.90;;;;;;6165376;23;20519;-79
2021/10/18 20:14:35;;;;;;;1.63;1.52;;;9.30;99.90;;;;;;6135310;23;20385;-82
2021/10/18 20:23:46;;;;;;;1.88;1.77;;;9.10;99.90;;;;;;6061228;23;20380;-81
2021/10/18 20:26:31;;;;;;;1.80;1.70;;;9.00;99.90;;;;;;6019990;23;20387;-81
2021/10/18 20:29:15;;;;;;;1.65;1.50;;;8.90;99.90;;;;;;6040051;23;20429;-81
2021/10/18 20:32:00;;;;;;;2.90;1.83;;;8.90;99.90;;;;;;6019474;23;20391;-81
2021/10/18 20:34:45;;;;;;;1.88;1.67;;;8.80;99.90;;;;;;6019415;23;20423;-81
2021/10/18 20:37:29;;;;;;;1.75;1.63;;;8.80;99.90;;;;;;6021527;23;20411;-82
2021/10/18 20:40:14;;;;;;;2.00;1.75;;;8.90;99.90;;;;;;6001961;23;20378;-82
2021/10/18 20:42:59;;;;;;;2.22;1.92;;;8.80;99.90;;;;;;6020745;23;20694;-81
2021/10/18 20:45:44;;;;;;;1.77;1.67;;;8.90;99.90;;;;;;6021508;23;20459;-82
2021/10/18 20:48:28;;;;;;;2.07;1.87;;;8.80;99.90;;;;;;6021534;23;20375;-81
2021/10/18 20:51:13;;;;;;;1.83;1.73;;;8.80;99.90;;;;;;6000770;23;20427;-80
2021/10/18 20:53:59;;;;;;;1.70;1.60;;;8.70;99.90;;;;;;6019841;23;20397;-81
2021/10/18 20:56:43;;;;;;;3.13;1.90;;;8.70;99.90;;;;;;6020042;23;20411;-82
2021/10/18 20:59:28;;;;;;;1.67;1.58;;;8.80;99.90;;;;;;6020567;23;20431;-82
2021/10/18 21:02:13;;;;;;;1.80;1.70;;;8.60;99.90;;;;;;5993510;23;20389;-82
2021/10/18 21:04:58;;;;;;;2.20;2.10;;;8.60;99.90;;;;;;6020629;23;20374;-81
2021/10/18 21:07:42;;;;;;;2.08;1.70;;;8.60;99.90;;;;;;6019941;23;20371;-81
2021/10/18 21:10:30;;;;;;;1.90;1.80;;;8.60;99.90;;;;;;6006447;23;20374;-82
2021/10/18 21:13:15;;;;;;;2.85;2.03;;;8.60;99.90;;;;;;6001940;23;20427;-82
2021/10/18 21:16:04;;;;;;;2.00;1.80;;;8.40;99.90;;;;;;6020943;23;20406;-81
2021/10/18 21:18:48;;;;;;;2.50;2.30;;;8.50;99.90;;;;;;6001343;23;20415;-82
2021/10/18 21:21:35;;;;;;;1.95;1.85;;;8.50;99.90;;;;;;6020170;23;20372;-81
2021/10/18 21:24:22;;;;;;;1.90;1.80;;;8.30;99.90;;;;;;6020167;23;20407;-81
2021/10/18 21:31:06;;;;;;;2.08;1.88;;;8.10;99.90;;;;;;6104060;23;20377;-79
2021/10/18 21:33:59;;;;;;;2.50;2.30;;;8.20;99.90;;;;;;6081060;23;20374;-79
2021/10/18 21:36:48;;;;;;;2.50;2.30;;;8.20;99.90;;;;;;6062195;23;20405;-79
2021/10/18 21:39:36;;;;;;;2.17;2.08;;;8.10;99.90;;;;;;6097752;23;20377;-79
2021/10/18 21:42:25;;;;;;;2.08;1.98;;;8.10;99.90;;;;;;6088055;23;20878;-79
2021/10/18 21:45:13;;;;;;;2.92;2.70;;;8.10;99.90;;;;;;6086417;23;20435;-78
2021/10/18 21:48:01;;;;;;;2.85;2.58;;;8.10;99.90;;;;;;6077610;23;20923;-79
2021/10/18 21:50:48;;;;;;;2.90;2.70;;;8.10;99.90;;;;;;6095073;23;20393;-79
2021/10/18 21:53:33;;;;;;;2.67;2.47;;;8.10;99.90;;;;;;6072372;23;20877;-78
2021/10/18 21:56:21;;;;;;;4.70;3.10;;;8.20;99.90;;;;;;6063062;23;20393;-79
2021/10/18 21:59:07;;;;;;;4.60;2.65;;;8.00;99.90;;;;;;6087254;23;20397;-78
2021/10/18 22:01:52;;;;;;;3.58;2.38;;;8.10;99.90;;;;;;6077709;23;20853;-78
2021/10/18 22:04:42;;;;;;;2.53;2.20;;;8.20;99.90;;;;;;6079863;23;20441;-78
2021/10/18 22:07:28;;;;;;;2.30;2.10;;;8.10;99.90;;;;;;6041403;23;20431;-79
2021/10/18 22:10:13;;;;;;;3.08;2.03;;;8.00;99.90;;;;;;6053096;23;20427;-81
2021/10/18 22:13:03;;;;;;;2.50;2.30;;;8.10;99.90;;;;;;6099317;23;20425;-80
2021/10/18 22:15:48;;;;;;;3.35;2.20;;;8.10;99.90;;;;;;6074789;23;20383;-81
2021/10/18 22:22:12;;;;;;;3.90;2.08;;;8.10;99.90;;;;;;6121281;23;20385;31
2021/10/18 22:24:57;;;;;;;2.30;2.10;;;8.20;99.90;;;;;;5982123;23;20788;-78
2021/10/18 22:27:42;;;;;;;2.03;1.92;;;8.10;99.90;;;;;;6054040;23;20837;-78
2021/10/18 22:30:27;;;;;;;2.38;2.17;;;8.10;99.90;;;;;;6016067;23;20406;-78
2021/10/18 22:33:12;;;;;;;2.80;2.55;;;8.10;99.90;;;;;;6035004;23;20399;-78
2021/10/18 22:35:59;;;;;;;3.20;2.80;;;8.10;99.90;;;;;;6016766;23;20875;-79
2021/10/18 22:38:44;;;;;;;2.25;2.05;;;8.20;99.90;;;;;;6017707;23;20380;-79
2021/10/18 22:41:29;;;;;;;2.77;2.57;;;8.10;99.90;;;;;;6001787;23;20688;-77
2021/10/18 22:44:13;;;;;;;3.45;2.28;;;8.10;99.90;;;;;;5997067;23;20479;-78
2021/10/18 22:46:58;;;;;;;2.65;2.45;;;8.00;99.90;;;;;;6037263;23;20375;-79
2021/10/18 22:49:46;;;;;;;2.03;1.92;;;8.10;99.90;;;;;;5977631;23;20488;-78
2021/10/18 22:52:34;;;;;;;2.50;2.30;;;8.00;99.90;;;;;;5998469;23;20379;-79
2021/10/18 22:55:21;;;;;;;2.33;2.13;;;8.10;99.90;;;;;;6016995;23;20663;-78
2021/10/18 22:58:06;;;;;;;2.85;2.60;;;8.10;99.90;;;;;;5985108;23;20445;-79
2021/10/18 23:00:52;;;;;;;3.00;2.40;;;8.10;99.90;;;;;;6083522;23;20387;-80
2021/10/18 23:03:37;;;;;;;4.13;2.70;;;8.10;99.90;;;;;;6106914;23;20437;-80
2021/10/18 23:06:22;;;;;;;2.63;2.42;;;8.10;99.90;;;;;;6066973;23;20381;-79
2021/10/18 23:09:10;;;;;;;2.55;2.35;;;8.20;99.90;;;;;;6085992;23;20464;-79
2021/10/18 23:11:56;;;;;;;3.35;2.58;;;8.00;99.90;;;;;;6109822;23;20381;-79
2021/10/18 23:14:51;;;;;;;4.03;2.57;;;8.20;99.90;;;;;;6079644;23;20756;-79
2021/10/18 23:17:39;;;;;;;3.53;2.85;;;8.10;99.90;;;;;;6065684;23;20445;-79
2021/10/18 23:20:30;;;;;;;3.03;2.78;;;8.10;99.90;;;;;;6045937;23;20918;-79
2021/10/18 23:23:17;;;;;;;3.97;2.85;;;8.20;99.90;;;;;;6062181;23;20735;-80
2021/10/18 23:26:05;;;;;;;3.55;3.25;;;8.20;99.90;;;;;;6087528;23;20385;-78
2021/10/18 23:31:51;;;;;;;2.88;2.67;;;8.20;99.90;;;;;;6139176;23;20381;-78
2021/10/18 23:34:37;;;;;;;2.88;2.67;;;8.20;99.90;;;;;;6113155;23;20376;-78
2021/10/18 23:37:22;;;;;;;4.45;3.72;;;8.20;99.90;;;;;;6113243;23;20432;-78
2021/10/18 23:40:07;;;;;;;3.15;2.92;;;8.20;99.90;;;;;;6113391;23;20420;-80
2021/10/18 23:42:55;;;;;;;3.58;2.83;;;8.30;99.90;;;;;;6136105;23;20380;-80
2021/10/18 23:45:42;;;;;;;4.30;3.67;;;8.20;99.90;;;;;;6098446;23;20403;-81
2021/10/18 23:51:42;;;;;;;5.32;4.40;;;8.20;99.90;;;;;;6134676;23;20402;-78
2021/10/18 23:54:27;;;;;;;2.92;2.60;;;8.30;99.90;;;;;;6088060;23;20826;-78
2021/10/18 23:57:13;;;;;;;5.05;4.13;;;8.30;99.90;;;;;;6074269;23;20515;-79
